TimeEDT,TemperatureF,Dew PointF,Humidity,Sea Level PressureIn,VisibilityMPH,Wind Direction,Wind SpeedMPH,Gust SpeedMPH,PrecipitationIn,Events,Conditions,WindDirDegrees,DateUTC
12:10 AM,48.2,37.4,66,29.64,10.0,Calm,Calm,-,N/A,,Mostly Cloudy,0,2012-10-19 04:10:00
12:30 AM,48.2,37.4,66,29.63,10.0,Calm,Calm,-,N/A,,Mostly Cloudy,0,2012-10-19 04:30:00
12:50 AM,46.4,39.2,76,29.62,10.0,Calm,Calm,-,N/A,,Overcast,0,2012-10-19 04:50:00
1:10 AM,46.4,41.0,81,29.63,10.0,SE,4.6,-,N/A,,Overcast,140,2012-10-19 05:10:00
1:30 AM,46.4,41.0,81,29.62,10.0,ESE,3.5,-,N/A,,Overcast,120,2012-10-19 05:30:00
1:50 AM,44.6,41.0,87,29.63,10.0,Calm,Calm,-,N/A,,Overcast,0,2012-10-19 05:50:00
2:10 AM,44.6,41.0,87,29.61,10.0,ESE,5.8,-,N/A,,Mostly Cloudy,110,2012-10-19 06:10:00
2:30 AM,46.4,39.2,76,29.61,10.0,East,4.6,-,N/A,,Scattered Clouds,100,2012-10-19 06:30:00
2:51 AM,46.4,41.0,81,29.61,10.0,East,5.8,-,N/A,,Mostly Cloudy,90,2012-10-19 06:51:00
3:11 AM,46.4,39.2,76,29.60,10.0,East,6.9,-,N/A,,Overcast,90,2012-10-19 07:11:00
3:31 AM,44.6,39.2,81,29.59,10.0,East,4.6,-,N/A,,Mostly Cloudy,100,2012-10-19 07:31:00
3:51 AM,46.4,39.2,76,29.60,10.0,SE,4.6,-,N/A,,Mostly Cloudy,130,2012-10-19 07:51:00
4:11 AM,44.6,41.0,87,29.61,10.0,Calm,Calm,-,N/A,,Overcast,0,2012-10-19 08:11:00
4:31 AM,44.6,41.0,87,29.60,10.0,Calm,Calm,-,N/A,,Overcast,0,2012-10-19 08:31:00
4:51 AM,46.4,41.0,81,29.60,10.0,Calm,Calm,-,N/A,,Overcast,0,2012-10-19 08:51:00
5:11 AM,46.4,39.2,76,29.59,10.0,Calm,Calm,-,N/A,,Overcast,0,2012-10-19 09:11:00
5:31 AM,44.6,41.0,87,29.60,10.0,Calm,Calm,-,N/A,,Overcast,0,2012-10-19 09:31:00
5:51 AM,46.4,41.0,81,29.60,10.0,Calm,Calm,-,N/A,,Overcast,0,2012-10-19 09:51:00
6:12 AM,44.6,41.0,87,29.60,10.0,Calm,Calm,-,N/A,,Overcast,0,2012-10-19 10:12:00
6:32 AM,44.6,41.0,87,29.59,10.0,East,3.5,-,N/A,,Overcast,80,2012-10-19 10:32:00
6:52 AM,46.4,41.0,81,29.59,10.0,ESE,4.6,-,N/A,,Overcast,120,2012-10-19 10:52:00
7:12 AM,46.4,41.0,81,29.59,10.0,ESE,4.6,-,N/A,,Overcast,120,2012-10-19 11:12:00
7:32 AM,46.4,42.8,87,29.59,10.0,ESE,4.6,-,N/A,,Overcast,120,2012-10-19 11:32:00
7:52 AM,48.2,42.8,82,29.58,10.0,ESE,4.6,-,N/A,,Overcast,110,2012-10-19 11:52:00
8:12 AM,48.2,44.6,87,29.58,10.0,ESE,12.7,-,N/A,,Overcast,110,2012-10-19 12:12:00
8:32 AM,50.0,44.6,82,29.58,10.0,ESE,10.4,-,N/A,,Light Drizzle,110,2012-10-19 12:32:00
8:52 AM,50.0,44.6,82,29.58,10.0,SE,11.5,-,N/A,Rain,Light Rain,130,2012-10-19 12:52:00
9:13 AM,50.0,46.4,87,29.58,10.0,ESE,13.8,-,N/A,,Overcast,120,2012-10-19 13:13:00
9:33 AM,50.0,44.6,82,29.58,10.0,ESE,12.7,-,N/A,,Overcast,120,2012-10-19 13:33:00
9:53 AM,51.8,46.4,82,29.58,10.0,ESE,12.7,17.3,N/A,,Overcast,120,2012-10-19 13:53:00
10:13 AM,51.8,44.6,76,29.58,10.0,SE,13.8,18.4,N/A,,Overcast,140,2012-10-19 14:13:00
10:33 AM,51.8,44.6,76,29.58,10.0,SE,13.8,-,N/A,,Overcast,140,2012-10-19 14:33:00
10:53 AM,51.8,44.6,76,29.58,10.0,SSE,11.5,-,N/A,Rain,Light Rain,150,2012-10-19 14:53:00
11:13 AM,51.8,44.6,76,29.58,10.0,South,10.4,-,N/A,,Drizzle,170,2012-10-19 15:13:00
11:33 AM,51.8,42.8,71,29.57,10.0,SSE,12.7,-,N/A,,Overcast,150,2012-10-19 15:33:00
11:54 AM,51.8,42.8,71,29.56,10.0,SSE,15.0,19.6,N/A,,Light Drizzle,150,2012-10-19 15:54:00
12:14 PM,51.8,42.8,71,29.56,10.0,SSE,13.8,19.6,N/A,,Light Drizzle,160,2012-10-19 16:14:00
12:34 PM,53.6,42.8,67,29.56,10.0,SSE,13.8,-,N/A,,Overcast,160,2012-10-19 16:34:00
12:54 PM,53.6,41.0,62,29.55,10.0,South,11.5,21.9,N/A,,Overcast,170,2012-10-19 16:54:00
1:14 PM,51.8,42.8,71,29.55,10.0,South,13.8,-,N/A,,Drizzle,180,2012-10-19 17:14:00
1:34 PM,50.0,44.6,82,29.55,10.0,South,11.5,-,N/A,,Overcast,180,2012-10-19 17:34:00
1:54 PM,53.6,44.6,72,29.54,10.0,South,12.7,-,N/A,,Overcast,170,2012-10-19 17:54:00
2:09 PM,53.6,44.6,72,29.54,10.0,SSE,16.1,25.3,N/A,,Overcast,160,2012-10-19 18:09:00
2:29 PM,53.6,42.8,67,29.54,10.0,SSE,12.7,-,N/A,,Overcast,160,2012-10-19 18:29:00
2:50 PM,53.6,42.8,67,29.54,10.0,South,13.8,-,N/A,,Overcast,180,2012-10-19 18:50:00
3:10 PM,53.6,41.0,62,29.53,10.0,South,8.1,12.7,N/A,,Overcast,190,2012-10-19 19:10:00
3:30 PM,53.6,41.0,62,29.54,10.0,South,11.5,17.3,N/A,,Overcast,170,2012-10-19 19:30:00
3:50 PM,53.6,41.0,62,29.54,10.0,South,8.1,-,N/A,,Overcast,190,2012-10-19 19:50:00
4:10 PM,53.6,41.0,62,29.54,10.0,South,8.1,-,N/A,,Overcast,180,2012-10-19 20:10:00
4:30 PM,53.6,41.0,62,29.54,10.0,SSE,8.1,-,N/A,,Overcast,150,2012-10-19 20:30:00
4:50 PM,53.6,41.0,62,29.54,10.0,South,6.9,-,N/A,,Overcast,180,2012-10-19 20:50:00
5:10 PM,53.6,41.0,62,29.54,10.0,South,6.9,-,N/A,,Overcast,190,2012-10-19 21:10:00
5:31 PM,53.6,42.8,67,29.54,10.0,South,5.8,-,N/A,,Overcast,180,2012-10-19 21:31:00
5:51 PM,53.6,42.8,67,29.55,10.0,South,4.6,-,N/A,,Overcast,180,2012-10-19 21:51:00
6:11 PM,53.6,42.8,67,29.55,10.0,SSE,3.5,-,N/A,,Mostly Cloudy,160,2012-10-19 22:11:00
6:31 PM,51.8,42.8,71,29.56,10.0,SSE,3.5,-,N/A,,Mostly Cloudy,150,2012-10-19 22:31:00
6:51 PM,51.8,42.8,71,29.56,10.0,East,4.6,-,N/A,,Mostly Cloudy,100,2012-10-19 22:51:00
7:11 PM,50.0,42.8,76,29.56,10.0,Calm,Calm,-,N/A,,Mostly Cloudy,0,2012-10-19 23:11:00
7:31 PM,51.8,42.8,71,29.56,10.0,Calm,Calm,-,N/A,,Overcast,0,2012-10-19 23:31:00
7:51 PM,51.8,42.8,71,29.56,10.0,SE,3.5,-,N/A,,Overcast,130,2012-10-19 23:51:00
8:11 PM,50.0,42.8,76,29.56,10.0,ESE,3.5,-,N/A,,Overcast,120,2012-10-20 00:11:00
8:32 PM,50.0,42.8,76,29.57,10.0,SW,13.8,-,N/A,Rain,Rain,230,2012-10-20 00:32:00
8:52 PM,48.2,44.6,87,29.58,10.0,SW,10.4,-,N/A,,Drizzle,220,2012-10-20 00:52:00
9:12 PM,46.4,44.6,93,29.58,10.0,SW,8.1,-,N/A,,Drizzle,230,2012-10-20 01:12:00
9:32 PM,46.4,46.4,100,29.58,10.0,SW,5.8,-,N/A,,Overcast,230,2012-10-20 01:32:00
9:52 PM,46.4,46.4,100,29.58,10.0,SW,4.6,-,N/A,,Drizzle,220,2012-10-20 01:52:00
10:12 PM,46.4,46.4,100,29.58,7.0,SSW,4.6,-,N/A,,Light Drizzle,210,2012-10-20 02:12:00
10:32 PM,46.4,46.4,100,29.57,10.0,Calm,Calm,-,N/A,,Drizzle,0,2012-10-20 02:32:00
10:52 PM,46.4,46.4,100,29.57,10.0,Calm,Calm,-,N/A,,Light Drizzle,0,2012-10-20 02:52:00
11:12 PM,46.4,46.4,100,29.57,7.0,Calm,Calm,-,N/A,,Drizzle,0,2012-10-20 03:12:00
11:33 PM,46.4,46.4,100,29.57,7.0,Calm,Calm,-,N/A,,Drizzle,0,2012-10-20 03:33:00
11:53 PM,46.4,46.4,100,29.57,7.0,Calm,Calm,-,N/A,Rain,Rain,0,2012-10-20 03:53:00